sensor_id;sensor_type;location;lat;lon;timestamp;pressure;altitude;pressure_sealevel;temperature;humidity
72308;BME280;60257;42.638;23.376;2023-08-08T00:00:02;94494.88;;;15.15;83.99
72308;BME280;60257;42.638;23.376;2023-08-08T00:02:28;94494.09;;;15.18;83.20
72308;BME280;60257;42.638;23.376;2023-08-08T00:04:54;94489.44;;;15.22;83.66
72308;BME280;60257;42.638;23.376;2023-08-08T00:07:19;94495.75;;;15.26;84.32
72308;BME280;60257;42.638;23.376;2023-08-08T00:09:45;94499.25;;;15.19;84.19
72308;BME280;60257;42.638;23.376;2023-08-08T00:12:10;94500.13;;;15.27;84.71
72308;BME280;60257;42.638;23.376;2023-08-08T00:14:36;94489.88;;;15.27;84.51
72308;BME280;60257;42.638;23.376;2023-08-08T00:17:01;94491.31;;;15.14;81.79
72308;BME280;60257;42.638;23.376;2023-08-08T00:19:27;94496.13;;;15.21;81.74
72308;BME280;60257;42.638;23.376;2023-08-08T00:21:52;94496.13;;;15.21;81.50
72308;BME280;60257;42.638;23.376;2023-08-08T00:24:18;94495.63;;;15.08;80.44
72308;BME280;60257;42.638;23.376;2023-08-08T00:26:43;94495.63;;;15.12;81.06
72308;BME280;60257;42.638;23.376;2023-08-08T00:29:09;94498.38;;;15.08;79.19
72308;BME280;60257;42.638;23.376;2023-08-08T00:31:35;94501.75;;;14.91;79.31
72308;BME280;60257;42.638;23.376;2023-08-08T00:34:00;94513.16;;;14.89;78.96
72308;BME280;60257;42.638;23.376;2023-08-08T00:36:26;94516.84;;;15.00;78.91
72308;BME280;60257;42.638;23.376;2023-08-08T00:38:51;94514.69;;;14.83;79.29
72308;BME280;60257;42.638;23.376;2023-08-08T00:41:17;94512.44;;;14.96;78.21
72308;BME280;60257;42.638;23.376;2023-08-08T00:43:42;94509.69;;;14.96;78.42
72308;BME280;60257;42.638;23.376;2023-08-08T00:46:09;94520.78;;;14.99;78.47
72308;BME280;60257;42.638;23.376;2023-08-08T00:48:34;94514.03;;;14.97;77.51
72308;BME280;60257;42.638;23.376;2023-08-08T00:51:00;94516.41;;;14.98;77.51
72308;BME280;60257;42.638;23.376;2023-08-08T00:53:26;94519.25;;;15.06;78.00
72308;BME280;60257;42.638;23.376;2023-08-08T00:55:54;94516.88;;;15.04;77.64
72308;BME280;60257;42.638;23.376;2023-08-08T00:58:19;94513.72;;;15.02;76.78
72308;BME280;60257;42.638;23.376;2023-08-08T01:00:45;94519.19;;;14.98;76.10
72308;BME280;60257;42.638;23.376;2023-08-08T01:03:10;94518.03;;;15.03;76.78
72308;BME280;60257;42.638;23.376;2023-08-08T01:05:47;94521.19;;;15.01;76.20
72308;BME280;60257;42.638;23.376;2023-08-08T01:08:16;94507.72;;;14.96;76.31
72308;BME280;60257;42.638;23.376;2023-08-08T01:10:44;94517.16;;;14.95;76.59
72308;BME280;60257;42.638;23.376;2023-08-08T01:13:14;94518.00;;;14.99;75.49
72308;BME280;60257;42.638;23.376;2023-08-08T01:15:42;94515.97;;;14.93;76.25
72308;BME280;60257;42.638;23.376;2023-08-08T01:18:09;94508.06;;;14.91;76.26
72308;BME280;60257;42.638;23.376;2023-08-08T01:20:36;94513.88;;;14.83;76.14
72308;BME280;60257;42.638;23.376;2023-08-08T01:23:33;94524.97;;;14.86;76.76
72308;BME280;60257;42.638;23.376;2023-08-08T01:26:01;94519.03;;;14.84;77.08
72308;BME280;60257;42.638;23.376;2023-08-08T01:28:27;94534.91;;;14.94;77.28
72308;BME280;60257;42.638;23.376;2023-08-08T01:30:53;94539.16;;;14.85;76.98
72308;BME280;60257;42.638;23.376;2023-08-08T01:33:19;94536.75;;;14.83;76.94
72308;BME280;60257;42.638;23.376;2023-08-08T01:35:52;94537.94;;;14.82;76.83
72308;BME280;60257;42.638;23.376;2023-08-08T01:38:35;94541.34;;;14.72;76.93
72308;BME280;60257;42.638;23.376;2023-08-08T01:41:04;94542.94;;;14.73;76.40
72308;BME280;60257;42.638;23.376;2023-08-08T01:43:32;94551.56;;;14.68;76.50
72308;BME280;60257;42.638;23.376;2023-08-08T01:45:59;94558.69;;;14.69;77.15
72308;BME280;60257;42.638;23.376;2023-08-08T01:48:27;94560.47;;;14.54;77.12
72308;BME280;60257;42.638;23.376;2023-08-08T01:50:53;94563.50;;;14.46;77.70
72308;BME280;60257;42.638;23.376;2023-08-08T01:53:18;94558.16;;;14.34;77.81
72308;BME280;60257;42.638;23.376;2023-08-08T01:55:44;94575.06;;;14.29;78.44
72308;BME280;60257;42.638;23.376;2023-08-08T01:58:09;94584.44;;;14.24;78.72
72308;BME280;60257;42.638;23.376;2023-08-08T02:00:35;94578.06;;;14.20;78.89
72308;BME280;60257;42.638;23.376;2023-08-08T02:03:02;94581.38;;;14.29;78.83
72308;BME280;60257;42.638;23.376;2023-08-08T02:05:27;94593.09;;;14.22;79.10
72308;BME280;60257;42.638;23.376;2023-08-08T02:07:53;94588.38;;;14.23;79.18
72308;BME280;60257;42.638;23.376;2023-08-08T02:10:18;94597.84;;;14.25;78.64
72308;BME280;60257;42.638;23.376;2023-08-08T02:12:44;94594.63;;;14.20;79.21
72308;BME280;60257;42.638;23.376;2023-08-08T02:15:09;94570.41;;;14.06;79.45
72308;BME280;60257;42.638;23.376;2023-08-08T02:17:38;94580.84;;;14.20;79.12
72308;BME280;60257;42.638;23.376;2023-08-08T02:20:05;94594.53;;;14.13;79.74
72308;BME280;60257;42.638;23.376;2023-08-08T02:22:31;94592.91;;;14.12;78.59
72308;BME280;60257;42.638;23.376;2023-08-08T02:24:57;94604.75;;;14.12;79.24
72308;BME280;60257;42.638;23.376;2023-08-08T02:27:23;94610.00;;;14.21;78.99
72308;BME280;60257;42.638;23.376;2023-08-08T02:29:48;94616.91;;;14.08;78.96
72308;BME280;60257;42.638;23.376;2023-08-08T02:32:13;94613.75;;;14.09;79.17
72308;BME280;60257;42.638;23.376;2023-08-08T02:34:39;94620.06;;;14.10;79.55
72308;BME280;60257;42.638;23.376;2023-08-08T02:37:04;94618.88;;;14.07;79.55
72308;BME280;60257;42.638;23.376;2023-08-08T02:39:30;94619.22;;;14.06;79.57
72308;BME280;60257;42.638;23.376;2023-08-08T02:41:55;94615.66;;;14.05;80.05
72308;BME280;60257;42.638;23.376;2023-08-08T02:44:21;94624.41;;;14.11;79.90
72308;BME280;60257;42.638;23.376;2023-08-08T02:46:48;94632.66;;;14.07;79.98
72308;BME280;60257;42.638;23.376;2023-08-08T02:49:14;94644.19;;;13.90;80.59
72308;BME280;60257;42.638;23.376;2023-08-08T02:51:39;94637.13;;;13.93;80.54
72308;BME280;60257;42.638;23.376;2023-08-08T02:54:05;94634.19;;;14.05;80.24
72308;BME280;60257;42.638;23.376;2023-08-08T02:56:30;94633.50;;;14.11;79.58
72308;BME280;60257;42.638;23.376;2023-08-08T02:58:56;94631.09;;;14.10;79.66
72308;BME280;60257;42.638;23.376;2023-08-08T03:01:21;94649.25;;;14.11;79.13
72308;BME280;60257;42.638;23.376;2023-08-08T03:03:47;94646.91;;;14.13;79.32
72308;BME280;60257;42.638;23.376;2023-08-08T03:06:13;94647.72;;;14.13;78.96
72308;BME280;60257;42.638;23.376;2023-08-08T03:08:38;94644.25;;;14.20;79.15
72308;BME280;60257;42.638;23.376;2023-08-08T03:11:04;94639.47;;;14.17;78.58
72308;BME280;60257;42.638;23.376;2023-08-08T03:13:29;94629.94;;;14.11;78.37
72308;BME280;60257;42.638;23.376;2023-08-08T03:15:55;94648.56;;;14.17;78.97
72308;BME280;60257;42.638;23.376;2023-08-08T03:18:22;94642.22;;;14.17;78.87
72308;BME280;60257;42.638;23.376;2023-08-08T03:20:48;94638.97;;;14.08;78.39
72308;BME280;60257;42.638;23.376;2023-08-08T03:23:13;94652.09;;;14.18;78.40
72308;BME280;60257;42.638;23.376;2023-08-08T03:25:39;94646.00;;;14.05;78.58
72308;BME280;60257;42.638;23.376;2023-08-08T03:28:05;94652.09;;;14.18;78.40
72308;BME280;60257;42.638;23.376;2023-08-08T03:30:30;94651.69;;;14.16;78.62
72308;BME280;60257;42.638;23.376;2023-08-08T03:32:56;94652.00;;;14.11;79.05
72308;BME280;60257;42.638;23.376;2023-08-08T03:35:21;94656.66;;;14.07;79.34
72308;BME280;60257;42.638;23.376;2023-08-08T03:37:47;94661.50;;;14.13;78.96
72308;BME280;60257;42.638;23.376;2023-08-08T03:40:12;94665.09;;;14.17;79.18
72308;BME280;60257;42.638;23.376;2023-08-08T03:42:40;94669.88;;;14.20;79.19
72308;BME280;60257;42.638;23.376;2023-08-08T03:45:05;94664.69;;;14.15;78.57
72308;BME280;60257;42.638;23.376;2023-08-08T03:47:31;94667.00;;;14.13;79.30
72308;BME280;60257;42.638;23.376;2023-08-08T03:49:56;94675.47;;;14.24;79.19
72308;BME280;60257;42.638;23.376;2023-08-08T03:52:23;94667.84;;;14.17;78.86
72308;BME280;60257;42.638;23.376;2023-08-08T03:54:49;94670.94;;;14.12;79.34
72308;BME280;60257;42.638;23.376;2023-08-08T03:57:17;94648.94;;;14.16;78.87
72308;BME280;60257;42.638;23.376;2023-08-08T03:59:43;94656.09;;;14.20;79.01
72308;BME280;60257;42.638;23.376;2023-08-08T04:02:08;94655.66;;;14.18;79.00
72308;BME280;60257;42.638;23.376;2023-08-08T04:04:34;94666.41;;;14.23;78.58
72308;BME280;60257;42.638;23.376;2023-08-08T04:06:59;94668.75;;;14.25;78.46
72308;BME280;60257;42.638;23.376;2023-08-08T04:09:25;94667.34;;;14.35;78.10
72308;BME280;60257;42.638;23.376;2023-08-08T04:11:50;94682.75;;;14.36;78.07
72308;BME280;60257;42.638;23.376;2023-08-08T04:14:16;94692.31;;;14.42;77.29
72308;BME280;60257;42.638;23.376;2023-08-08T04:16:41;94698.63;;;14.42;77.52
72308;BME280;60257;42.638;23.376;2023-08-08T04:19:07;94707.56;;;14.36;77.38
72308;BME280;60257;42.638;23.376;2023-08-08T04:21:32;94696.97;;;14.38;77.46
72308;BME280;60257;42.638;23.376;2023-08-08T04:23:58;94702.63;;;14.45;77.29
72308;BME280;60257;42.638;23.376;2023-08-08T04:26:25;94710.09;;;14.44;77.31
72308;BME280;60257;42.638;23.376;2023-08-08T04:28:50;94708.47;;;14.40;77.47
72308;BME280;60257;42.638;23.376;2023-08-08T04:31:16;94714.34;;;14.38;77.61
72308;BME280;60257;42.638;23.376;2023-08-08T04:33:41;94707.41;;;14.48;77.60
72308;BME280;60257;42.638;23.376;2023-08-08T04:36:07;94714.47;;;14.45;77.24
72308;BME280;60257;42.638;23.376;2023-08-08T04:38:32;94708.97;;;14.49;76.80
72308;BME280;60257;42.638;23.376;2023-08-08T04:40:58;94712.66;;;14.56;76.04
72308;BME280;60257;42.638;23.376;2023-08-08T04:43:23;94723.28;;;14.54;76.43
72308;BME280;60257;42.638;23.376;2023-08-08T04:45:49;94713.88;;;14.59;75.49
72308;BME280;60257;42.638;23.376;2023-08-08T04:48:14;94717.22;;;14.72;74.98
72308;BME280;60257;42.638;23.376;2023-08-08T04:50:40;94713.34;;;14.76;75.62
72308;BME280;60257;42.638;23.376;2023-08-08T04:53:06;94713.88;;;14.85;75.32
72308;BME280;60257;42.638;23.376;2023-08-08T04:55:31;94707.28;;;14.93;74.56
72308;BME280;60257;42.638;23.376;2023-08-08T04:57:57;94702.22;;;14.99;73.86
72308;BME280;60257;42.638;23.376;2023-08-08T05:00:22;94699.31;;;14.88;73.59
72308;BME280;60257;42.638;23.376;2023-08-08T05:02:47;94700.31;;;15.03;73.96
72308;BME280;60257;42.638;23.376;2023-08-08T05:05:13;94719.72;;;15.10;73.65
72308;BME280;60257;42.638;23.376;2023-08-08T05:07:38;94723.69;;;15.09;73.44
72308;BME280;60257;42.638;23.376;2023-08-08T05:10:05;94729.13;;;15.02;73.37
72308;BME280;60257;42.638;23.376;2023-08-08T05:12:30;94746.78;;;14.97;73.58
72308;BME280;60257;42.638;23.376;2023-08-08T05:14:56;94744.38;;;14.96;74.06
72308;BME280;60257;42.638;23.376;2023-08-08T05:17:21;94762.28;;;15.06;73.28
72308;BME280;60257;42.638;23.376;2023-08-08T05:19:47;94763.09;;;15.06;73.13
72308;BME280;60257;42.638;23.376;2023-08-08T05:22:12;94765.25;;;15.20;73.08
72308;BME280;60257;42.638;23.376;2023-08-08T05:24:37;94765.03;;;15.32;71.93
72308;BME280;60257;42.638;23.376;2023-08-08T05:27:03;94770.84;;;15.53;71.16
72308;BME280;60257;42.638;23.376;2023-08-08T05:29:29;94775.94;;;15.51;70.74
72308;BME280;60257;42.638;23.376;2023-08-08T05:31:54;94779.13;;;14.97;72.46
72308;BME280;60257;42.638;23.376;2023-08-08T05:34:20;94790.81;;;15.13;72.33
72308;BME280;60257;42.638;23.376;2023-08-08T05:36:46;94787.69;;;15.15;72.44
72308;BME280;60257;42.638;23.376;2023-08-08T05:39:11;94799.81;;;15.10;72.39
72308;BME280;60257;42.638;23.376;2023-08-08T05:41:36;94797.66;;;15.23;72.23
72308;BME280;60257;42.638;23.376;2023-08-08T05:44:02;94786.53;;;15.19;71.74
72308;BME280;60257;42.638;23.376;2023-08-08T05:46:27;94784.22;;;15.51;70.95
72308;BME280;60257;42.638;23.376;2023-08-08T05:48:53;94799.31;;;15.57;70.71
72308;BME280;60257;42.638;23.376;2023-08-08T05:51:18;94804.00;;;15.83;70.42
72308;BME280;60257;42.638;23.376;2023-08-08T05:53:44;94801.75;;;15.92;69.86
72308;BME280;60257;42.638;23.376;2023-08-08T05:56:09;94797.97;;;16.07;68.76
72308;BME280;60257;42.638;23.376;2023-08-08T05:58:35;94807.38;;;16.03;68.18
72308;BME280;60257;42.638;23.376;2023-08-08T06:01:02;94803.28;;;16.27;68.00
72308;BME280;60257;42.638;23.376;2023-08-08T06:03:31;94798.91;;;16.22;67.19
72308;BME280;60257;42.638;23.376;2023-08-08T06:05:57;94811.03;;;16.47;66.90
72308;BME280;60257;42.638;23.376;2023-08-08T06:08:23;94819.66;;;16.02;66.94
72308;BME280;60257;42.638;23.376;2023-08-08T06:10:48;94823.59;;;16.04;67.59
72308;BME280;60257;42.638;23.376;2023-08-08T06:13:14;94814.34;;;15.90;67.45
72308;BME280;60257;42.638;23.376;2023-08-08T06:15:39;94813.22;;;15.64;69.10
72308;BME280;60257;42.638;23.376;2023-08-08T06:18:05;94818.72;;;15.61;68.57
72308;BME280;60257;42.638;23.376;2023-08-08T06:20:31;94820.16;;;15.51;69.37
72308;BME280;60257;42.638;23.376;2023-08-08T06:22:56;94820.13;;;15.48;69.36
72308;BME280;60257;42.638;23.376;2023-08-08T06:25:22;94815.59;;;15.36;69.65
72308;BME280;60257;42.638;23.376;2023-08-08T06:27:47;94820.13;;;15.48;69.43
72308;BME280;60257;42.638;23.376;2023-08-08T06:30:13;94819.78;;;15.53;68.18
72308;BME280;60257;42.638;23.376;2023-08-08T06:32:38;94823.25;;;15.46;68.01
72308;BME280;60257;42.638;23.376;2023-08-08T06:35:04;94810.81;;;15.59;67.44
72308;BME280;60257;42.638;23.376;2023-08-08T06:37:30;94812.84;;;15.96;66.90
72308;BME280;60257;42.638;23.376;2023-08-08T06:39:55;94811.41;;;15.75;65.08
72308;BME280;60257;42.638;23.376;2023-08-08T06:42:20;94811.00;;;16.07;62.99
72308;BME280;60257;42.638;23.376;2023-08-08T06:44:46;94809.91;;;16.15;62.38
72308;BME280;60257;42.638;23.376;2023-08-08T06:47:11;94808.94;;;16.37;63.14
72308;BME280;60257;42.638;23.376;2023-08-08T06:49:37;94814.78;;;16.29;62.36
72308;BME280;60257;42.638;23.376;2023-08-08T06:52:04;94810.47;;;16.31;62.58
72308;BME280;60257;42.638;23.376;2023-08-08T06:54:31;94809.28;;;16.69;61.52
72308;BME280;60257;42.638;23.376;2023-08-08T06:56:56;94804.16;;;16.71;62.11
72308;BME280;60257;42.638;23.376;2023-08-08T06:59:23;94818.31;;;17.10;61.50
72308;BME280;60257;42.638;23.376;2023-08-08T07:01:49;94810.44;;;17.19;61.00
72308;BME280;60257;42.638;23.376;2023-08-08T07:04:16;94825.66;;;17.43;60.54
72308;BME280;60257;42.638;23.376;2023-08-08T07:06:43;94825.81;;;17.06;58.10
72308;BME280;60257;42.638;23.376;2023-08-08T07:09:08;94828.47;;;16.92;58.12
72308;BME280;60257;42.638;23.376;2023-08-08T07:11:39;94818.78;;;16.35;57.90
72308;BME280;60257;42.638;23.376;2023-08-08T07:14:04;94827.72;;;16.58;57.86
72308;BME280;60257;42.638;23.376;2023-08-08T07:16:29;94810.06;;;16.70;56.39
72308;BME280;60257;42.638;23.376;2023-08-08T07:18:55;94809.38;;;16.80;56.40
72308;BME280;60257;42.638;23.376;2023-08-08T07:21:20;94814.66;;;16.99;55.97
72308;BME280;60257;42.638;23.376;2023-08-08T07:23:46;94817.22;;;16.71;57.23
72308;BME280;60257;42.638;23.376;2023-08-08T07:26:11;94807.31;;;16.70;57.37
72308;BME280;60257;42.638;23.376;2023-08-08T07:28:37;94810.19;;;16.84;56.33
72308;BME280;60257;42.638;23.376;2023-08-08T07:31:03;94820.13;;;16.48;57.25
72308;BME280;60257;42.638;23.376;2023-08-08T07:33:28;94829.56;;;16.43;58.39
72308;BME280;60257;42.638;23.376;2023-08-08T07:35:54;94813.88;;;16.54;56.75
72308;BME280;60257;42.638;23.376;2023-08-08T07:38:19;94814.88;;;16.76;56.67
72308;BME280;60257;42.638;23.376;2023-08-08T07:40:45;94821.47;;;16.65;55.50
72308;BME280;60257;42.638;23.376;2023-08-08T07:43:11;94824.47;;;16.89;54.67
72308;BME280;60257;42.638;23.376;2023-08-08T07:45:37;94807.97;;;16.60;54.62
72308;BME280;60257;42.638;23.376;2023-08-08T07:48:04;94820.28;;;16.62;55.50
72308;BME280;60257;42.638;23.376;2023-08-08T07:50:30;94824.84;;;16.84;55.26
72308;BME280;60257;42.638;23.376;2023-08-08T07:52:55;94826.81;;;16.84;55.90
72308;BME280;60257;42.638;23.376;2023-08-08T07:55:21;94825.28;;;16.90;55.14
72308;BME280;60257;42.638;23.376;2023-08-08T07:57:46;94824.66;;;17.11;54.54
72308;BME280;60257;42.638;23.376;2023-08-08T08:00:13;94823.13;;;17.20;53.72
72308;BME280;60257;42.638;23.376;2023-08-08T08:02:39;94803.69;;;17.10;54.21
72308;BME280;60257;42.638;23.376;2023-08-08T08:05:05;94812.69;;;17.00;53.72
72308;BME280;60257;42.638;23.376;2023-08-08T08:07:36;94818.72;;;17.12;53.66
72308;BME280;60257;42.638;23.376;2023-08-08T08:10:04;94823.59;;;17.26;53.45
72308;BME280;60257;42.638;23.376;2023-08-08T08:12:30;94833.09;;;17.28;53.81
72308;BME280;60257;42.638;23.376;2023-08-08T08:14:56;94826.94;;;17.60;52.58
72308;BME280;60257;42.638;23.376;2023-08-08T08:17:22;94832.56;;;17.63;51.84
72308;BME280;60257;42.638;23.376;2023-08-08T08:19:47;94829.38;;;17.61;51.22
72308;BME280;60257;42.638;23.376;2023-08-08T08:22:13;94809.22;;;17.72;50.57
72308;BME280;60257;42.638;23.376;2023-08-08T08:24:38;94820.94;;;17.51;51.32
72308;BME280;60257;42.638;23.376;2023-08-08T08:27:04;94826.25;;;17.74;51.36
72308;BME280;60257;42.638;23.376;2023-08-08T08:29:29;94822.16;;;17.50;52.00
72308;BME280;60257;42.638;23.376;2023-08-08T08:31:56;94815.84;;;17.56;53.01
72308;BME280;60257;42.638;23.376;2023-08-08T08:34:22;94801.28;;;17.70;53.04
72308;BME280;60257;42.638;23.376;2023-08-08T08:36:47;94809.97;;;17.61;53.46
72308;BME280;60257;42.638;23.376;2023-08-08T08:39:13;94814.16;;;17.38;54.45
72308;BME280;60257;42.638;23.376;2023-08-08T08:41:39;94827.59;;;17.36;53.11
72308;BME280;60257;42.638;23.376;2023-08-08T08:44:04;94819.50;;;17.67;52.87
72308;BME280;60257;42.638;23.376;2023-08-08T08:46:32;94818.44;;;17.97;51.38
72308;BME280;60257;42.638;23.376;2023-08-08T08:48:59;94820.47;;;18.14;51.72
72308;BME280;60257;42.638;23.376;2023-08-08T08:51:27;94815.38;;;18.27;51.11
72308;BME280;60257;42.638;23.376;2023-08-08T08:53:53;94809.03;;;18.37;51.00
72308;BME280;60257;42.638;23.376;2023-08-08T08:56:19;94814.56;;;18.23;52.05
72308;BME280;60257;42.638;23.376;2023-08-08T08:58:45;94824.84;;;18.15;51.50
72308;BME280;60257;42.638;23.376;2023-08-08T09:01:11;94806.69;;;18.39;51.17
72308;BME280;60257;42.638;23.376;2023-08-08T09:03:37;94808.72;;;18.60;50.79
72308;BME280;60257;42.638;23.376;2023-08-08T09:06:03;94800.75;;;18.48;49.53
72308;BME280;60257;42.638;23.376;2023-08-08T09:08:29;94809.94;;;18.66;50.41
72308;BME280;60257;42.638;23.376;2023-08-08T09:10:55;94816.59;;;18.43;50.48
72308;BME280;60257;42.638;23.376;2023-08-08T09:13:22;94816.59;;;18.51;50.32
72308;BME280;60257;42.638;23.376;2023-08-08T09:15:50;94810.66;;;18.45;50.53
72308;BME280;60257;42.638;23.376;2023-08-08T09:18:16;94821.03;;;18.69;50.61
72308;BME280;60257;42.638;23.376;2023-08-08T09:20:47;94811.13;;;18.79;48.93
72308;BME280;60257;42.638;23.376;2023-08-08T09:23:12;94810.59;;;18.24;50.84
72308;BME280;60257;42.638;23.376;2023-08-08T09:25:38;94806.72;;;18.50;50.23
72308;BME280;60257;42.638;23.376;2023-08-08T09:28:04;94809.84;;;18.44;50.59
72308;BME280;60257;42.638;23.376;2023-08-08T09:30:30;94820.59;;;18.53;50.67
72308;BME280;60257;42.638;23.376;2023-08-08T09:32:58;94815.09;;;18.71;49.09
72308;BME280;60257;42.638;23.376;2023-08-08T09:35:24;94815.50;;;18.80;48.31
72308;BME280;60257;42.638;23.376;2023-08-08T09:37:53;94815.50;;;18.76;48.68
72308;BME280;60257;42.638;23.376;2023-08-08T09:40:19;94827.00;;;18.75;48.27
72308;BME280;60257;42.638;23.376;2023-08-08T09:42:47;94829.78;;;18.75;47.90
72308;BME280;60257;42.638;23.376;2023-08-08T09:45:14;94828.59;;;18.76;48.41
72308;BME280;60257;42.638;23.376;2023-08-08T09:47:39;94837.19;;;18.25;50.12
72308;BME280;60257;42.638;23.376;2023-08-08T09:50:06;94828.06;;;18.28;50.06
72308;BME280;60257;42.638;23.376;2023-08-08T09:52:33;94832.78;;;18.17;49.66
72308;BME280;60257;42.638;23.376;2023-08-08T09:55:00;94824.50;;;18.31;50.01
72308;BME280;60257;42.638;23.376;2023-08-08T09:57:26;94823.72;;;18.27;49.56
72308;BME280;60257;42.638;23.376;2023-08-08T09:59:52;94814.19;;;18.31;49.24
72308;BME280;60257;42.638;23.376;2023-08-08T10:02:18;94824.09;;;18.18;49.10
72308;BME280;60257;42.638;23.376;2023-08-08T10:04:45;94821.75;;;18.38;48.59
72308;BME280;60257;42.638;23.376;2023-08-08T10:07:11;94809.03;;;18.26;47.83
72308;BME280;60257;42.638;23.376;2023-08-08T10:09:37;94831.28;;;18.40;47.80
72308;BME280;60257;42.638;23.376;2023-08-08T10:12:07;94835.63;;;18.31;48.35
72308;BME280;60257;42.638;23.376;2023-08-08T10:14:37;94824.91;;;18.36;48.84
72308;BME280;60257;42.638;23.376;2023-08-08T10:17:07;94820.59;;;18.50;47.86
72308;BME280;60257;42.638;23.376;2023-08-08T10:19:33;94831.28;;;18.51;46.82
72308;BME280;60257;42.638;23.376;2023-08-08T10:22:05;94817.38;;;18.44;47.12
72308;BME280;60257;42.638;23.376;2023-08-08T10:24:35;94817.38;;;18.44;47.24
72308;BME280;60257;42.638;23.376;2023-08-08T10:27:02;94802.00;;;18.71;47.13
72308;BME280;60257;42.638;23.376;2023-08-08T10:29:30;94828.22;;;18.84;45.94
72308;BME280;60257;42.638;23.376;2023-08-08T10:32:02;94809.16;;;18.65;46.44
72308;BME280;60257;42.638;23.376;2023-08-08T10:34:38;94816.69;;;18.75;47.34
72308;BME280;60257;42.638;23.376;2023-08-08T10:37:05;94801.56;;;18.59;48.53
72308;BME280;60257;42.638;23.376;2023-08-08T10:39:31;94801.22;;;18.96;47.63
72308;BME280;60257;42.638;23.376;2023-08-08T10:42:02;94797.63;;;18.77;47.42
72308;BME280;60257;42.638;23.376;2023-08-08T10:44:28;94800.03;;;19.11;47.08
72308;BME280;60257;42.638;23.376;2023-08-08T10:46:53;94800.41;;;19.34;46.22
72308;BME280;60257;42.638;23.376;2023-08-08T10:49:20;94788.84;;;19.46;45.69
72308;BME280;60257;42.638;23.376;2023-08-08T10:51:47;94786.84;;;19.61;45.59
72308;BME280;60257;42.638;23.376;2023-08-08T10:54:18;94792.06;;;19.27;46.47
72308;BME280;60257;42.638;23.376;2023-08-08T10:56:52;94784.94;;;19.12;46.59
72308;BME280;60257;42.638;23.376;2023-08-08T10:59:35;94775.78;;;19.22;47.07
72308;BME280;60257;42.638;23.376;2023-08-08T11:02:01;94788.47;;;19.51;46.44
72308;BME280;60257;42.638;23.376;2023-08-08T11:04:28;94781.34;;;19.50;46.42
72308;BME280;60257;42.638;23.376;2023-08-08T11:06:55;94788.47;;;19.55;46.19
72308;BME280;60257;42.638;23.376;2023-08-08T11:09:22;94786.44;;;19.73;45.74
72308;BME280;60257;42.638;23.376;2023-08-08T11:11:48;94782.50;;;19.42;45.90
72308;BME280;60257;42.638;23.376;2023-08-08T11:14:18;94778.50;;;19.61;46.08
72308;BME280;60257;42.638;23.376;2023-08-08T11:16:46;94795.59;;;19.63;45.62
72308;BME280;60257;42.638;23.376;2023-08-08T11:19:12;94776.47;;;19.76;45.21
72308;BME280;60257;42.638;23.376;2023-08-08T11:21:41;94786.78;;;19.82;44.11
72308;BME280;60257;42.638;23.376;2023-08-08T11:24:07;94781.56;;;19.95;44.00
72308;BME280;60257;42.638;23.376;2023-08-08T11:26:37;94777.28;;;19.73;45.13
72308;BME280;60257;42.638;23.376;2023-08-08T11:29:04;94786.81;;;19.79;44.81
72308;BME280;60257;42.638;23.376;2023-08-08T11:31:31;94776.44;;;19.83;44.67
72308;BME280;60257;42.638;23.376;2023-08-08T11:33:58;94763.66;;;19.99;44.35
72308;BME280;60257;42.638;23.376;2023-08-08T11:36:24;94771.53;;;20.19;44.62
72308;BME280;60257;42.638;23.376;2023-08-08T11:38:51;94767.66;;;19.95;43.86
72308;BME280;60257;42.638;23.376;2023-08-08T11:41:20;94762.72;;;20.27;44.79
72308;BME280;60257;42.638;23.376;2023-08-08T11:43:48;94757.44;;;20.47;44.11
72308;BME280;60257;42.638;23.376;2023-08-08T11:46:14;94762.84;;;20.72;43.49
72308;BME280;60257;42.638;23.376;2023-08-08T11:48:41;94762.13;;;20.64;42.37
72308;BME280;60257;42.638;23.376;2023-08-08T11:51:07;94750.41;;;20.84;42.92
72308;BME280;60257;42.638;23.376;2023-08-08T11:53:34;94754.63;;;21.02;42.46
72308;BME280;60257;42.638;23.376;2023-08-08T11:56:00;94753.53;;;20.93;41.74
72308;BME280;60257;42.638;23.376;2023-08-08T11:58:26;94764.03;;;20.74;43.00
72308;BME280;60257;42.638;23.376;2023-08-08T12:00:52;94759.72;;;20.63;42.68
72308;BME280;60257;42.638;23.376;2023-08-08T12:03:19;94754.16;;;20.66;43.42
72308;BME280;60257;42.638;23.376;2023-08-08T12:05:48;94753.06;;;20.46;43.46
72308;BME280;60257;42.638;23.376;2023-08-08T12:08:23;94740.50;;;20.20;44.33
72308;BME280;60257;42.638;23.376;2023-08-08T12:10:50;94736.09;;;20.23;44.50
72308;BME280;60257;42.638;23.376;2023-08-08T12:13:24;94749.09;;;20.51;43.79
72308;BME280;60257;42.638;23.376;2023-08-08T12:15:52;94740.28;;;20.56;42.91
72308;BME280;60257;42.638;23.376;2023-08-08T12:18:19;94751.25;;;20.81;43.11
72308;BME280;60257;42.638;23.376;2023-08-08T12:20:45;94745.13;;;20.96;42.53
72308;BME280;60257;42.638;23.376;2023-08-08T12:23:11;94735.34;;;20.78;42.56
72308;BME280;60257;42.638;23.376;2023-08-08T12:25:37;94735.06;;;21.09;42.45
72308;BME280;60257;42.638;23.376;2023-08-08T12:28:03;94740.22;;;21.11;42.29
72308;BME280;60257;42.638;23.376;2023-08-08T12:30:30;94731.94;;;21.00;42.33
72308;BME280;60257;42.638;23.376;2023-08-08T12:32:55;94738.88;;;21.30;42.69
72308;BME280;60257;42.638;23.376;2023-08-08T12:35:21;94731.25;;;21.34;41.64
72308;BME280;60257;42.638;23.376;2023-08-08T12:37:47;94731.81;;;20.70;42.97
72308;BME280;60257;42.638;23.376;2023-08-08T12:40:12;94738.66;;;21.06;42.47
72308;BME280;60257;42.638;23.376;2023-08-08T12:42:38;94729.06;;;21.11;41.27
72308;BME280;60257;42.638;23.376;2023-08-08T12:45:08;94735.28;;;21.29;41.15